• Join FlightAware (Why Join?)
  • Login
  • US Flag 
07:33AM EDT


 

Airport Tracker/Info


-or-


 

Live Flight TrackerFlight Track Log ✈ N43317 ✈ 07-Jul-2013 ✈ KICT - KCBF

Flight Track Log - Related Links

Times and Time Zones

All times are in EDT time to prevent confusion due to time zone crossing. See the N43317 flight status page for this flight to view local times or setup timezone preferences in your user account.

Time Position Orientation Groundspeed Altitude Reporting Facility
EDT Latitude Longitude Course Direction KTS MPH feet Rate Location/Type
02:13PM 37.6467 -97.4269 192° South 70 81 1,700  Level Kansas City Center
02:14PM 37.6264 -97.4325 192° South 69 79 2,600 720 Climbing Kansas City Center
02:15PM 37.6175 -97.4269 154° Southeast 78 90 3,000 540 Climbing Kansas City Center
02:16PM 37.6122 -97.3908 100° East 85 98 3,600 660 Climbing Kansas City Center
02:17PM 37.6308 -97.3672 45° Northeast 106 122 4,400 600 Climbing Kansas City Center
02:18PM 37.6608 -97.3558 17° North 117 135 4,900 540 Climbing Kansas City Center
02:19PM 37.6914 -97.3425 19° North 113 130 5,600 660 Climbing Kansas City Center
02:20PM 37.7219 -97.3275 21° North 116 133 6,300 660 Climbing Kansas City Center
02:21PM 37.7514 -97.3153 18° North 115 132 6,900 360 Climbing Kansas City Center
02:22PM 37.7897 -97.2989 19° North 136 157 7,000  Climbing Kansas City Center
02:23PM 37.8303 -97.2844 16° North 155 178 7,000  Level Kansas City Center
02:24PM 37.8686 -97.2678 19° North 154 177 7,100  Climbing Kansas City Center
02:25PM 37.9158 -97.2472 19° North 151 174 7,000 -120 Descending Kansas City Center
02:26PM 37.9581 -97.2328 15° North 156 180 6,900  Descending Kansas City Center
02:27PM 37.9972 -97.2153 19° North 151 174 7,000  Climbing Kansas City Center
02:28PM 38.0436 -97.1894 24° Northeast 151 174 7,000  Level Kansas City Center
02:29PM 38.0822 -97.1683 23° Northeast 152 175 7,100  Climbing Kansas City Center
02:30PM 38.1214 -97.1500 20° North 151 174 7,000 -60 Descending Kansas City Center
02:31PM 38.1619 -97.1336 18° North 152 175 7,000  Level Kansas City Center
02:32PM 38.2014 -97.1131 22° Northeast 153 176 7,000  Level Kansas City Center
02:33PM 38.2386 -97.0919 24° Northeast 148 170 7,100 -60 Climbing Kansas City Center
02:34PM 38.2875 -97.0708 19° North 153 176 6,900 -60 Descending Kansas City Center
02:36PM 38.3261 -97.0531 20° North 148 170 7,000  Climbing Kansas City Center
02:37PM 38.3636 -97.0339 22° Northeast 146 168 7,000  Level Kansas City Center
02:38PM 38.4039 -97.0153 20° North 149 171 7,000 -60 Level Kansas City Center
02:39PM 38.4417 -96.9969 21° North 150 173 6,900  Descending Kansas City Center
02:40PM 38.4889 -96.9778 18° North 148 170 7,100  Climbing Kansas City Center
02:41PM 38.5275 -96.9619 18° North 150 173 7,000 -120 Descending Kansas City Center
02:42PM 38.5706 -96.9483 14° North 153 176 6,900  Descending Kansas City Center
02:43PM 38.6100 -96.9289 21° North 145 167 7,100  Climbing Kansas City Center
02:44PM 38.6497 -96.9122 18° North 144 166 6,900 -60 Descending Kansas City Center
02:45PM 38.6853 -96.8950 21° North 133 153 7,000 60 Climbing Kansas City Center
02:46PM 38.7242 -96.8758 21° North 141 162 7,100  Climbing Kansas City Center
02:47PM 38.7658 -96.8567 20° North 152 175 7,100  Level Kansas City Center
02:48PM 38.8075 -96.8333 24° Northeast 157 181 7,100  Level Kansas City Center
02:49PM 38.8467 -96.8156 19° North 154 177 7,100 -120 Level Kansas City Center
02:50PM 38.8894 -96.7975 18° North 156 180 6,900  Descending Kansas City Center
02:51PM 38.9306 -96.7786 20° North 150 173 7,100  Climbing Kansas City Center
02:52PM 38.9731 -96.7625 16° North 154 177 7,000  Descending Kansas City Center
02:53PM 39.0131 -96.7386 25° Northeast 154 177 7,100  Climbing Kansas City Center
02:54PM 39.0525 -96.7153 25° Northeast 150 173 7,000  Descending Kansas City Center
02:55PM 39.0931 -96.6958 20° North 151 174 7,100  Climbing Kansas City Center
02:56PM 39.1328 -96.6711 26° Northeast 154 177 7,100 -60 Level Kansas City Center
02:57PM 39.1747 -96.6544 17° North 152 175 7,000 -60 Descending Kansas City Center
02:58PM 39.2164 -96.6331 22° Northeast 153 176 7,000  Level Kansas City Center
02:59PM 39.2539 -96.6167 19° North 149 171 7,100  Climbing Kansas City Center
03:00PM 39.2969 -96.6011 16° North 153 176 7,000  Descending Kansas City Center
03:01PM 39.3394 -96.5822 19° North 153 176 7,100  Climbing Kansas City Center
03:02PM 39.3819 -96.5658 17° North 152 175 7,000  Descending Kansas City Center
03:03PM 39.4247 -96.5481 18° North 155 178 7,100  Climbing Kansas City Center
03:04PM 39.4681 -96.5294 18° North 158 182 7,000  Descending Kansas City Center
03:06PM 39.5114 -96.5122 17° North 157 181 7,100  Climbing Kansas City Center
03:07PM 39.5519 -96.4964 17° North 157 181 7,000  Descending Kansas City Center
03:08PM 39.5958 -96.4786 17° North 159 183 7,100  Climbing Kansas City Center
03:09PM 39.6397 -96.4603 18° North 159 183 7,000 -60 Descending Kansas City Center
03:10PM 39.6839 -96.4425 17° North 159 183 7,000 -60 Level Kansas City Center
03:11PM 39.7283 -96.4244 17° North 160 184 6,900  Descending Kansas City Center
03:12PM 39.7714 -96.4053 19° North 158 182 7,000 60 Climbing Kansas City Center
03:13PM 39.8122 -96.3878 18° North 154 177 7,100  Climbing Kansas City Center
03:14PM 39.8536 -96.3733 15° North 159 183 7,000 -60 Descending Kansas City Center
03:15PM 39.9014 -96.3575 14° North 158 182 7,000  Level Kansas City Center
03:16PM 39.9411 -96.3397 19° North 159 183 7,000  Level Kansas City Center
03:17PM 39.9883 -96.3206 17° North 158 182 7,100  Climbing Kansas City Center
03:18PM 40.0294 -96.3019 19° North 161 185 7,000 -60 Descending Kansas City Center
03:19PM 40.0694 -96.2842 19° North 159 183 7,000  Level Kansas City Center
03:20PM 40.1156 -96.2622 20° North 157 181 7,000  Level Kansas City Center
03:21PM 40.1564 -96.2436 19° North 160 184 7,000 -60 Level Kansas City Center
03:22PM 40.2053 -96.2267 15° North 162 186 6,900  Descending Kansas City Center
03:23PM 40.2453 -96.2083 19° North 159 183 7,000  Climbing Kansas City Center
03:24PM 40.2911 -96.1878 19° North 157 181 7,000  Level Kansas City Center
03:25PM 40.3319 -96.1664 22° Northeast 162 186 7,000  Level Kansas City Center
03:26PM 40.3792 -96.1469 17° North 161 185 7,000  Level Kansas City Center
03:27PM 40.4194 -96.1325 15° North 157 181 7,000  Level Kansas City Center
03:28PM 40.4667 -96.1111 19° North 160 184 7,000  Level Kansas City Center
03:29PM 40.5164 -96.0800 25° Northeast 162 186 7,000  Level Minneapolis Center
03:31PM 40.5611 -96.0583 20° North 162 186 7,000  Level Minneapolis Center